Terminal Aerodrome Forecast
Issued by NWS

Home | Current Version | Previous Version | Text Only | Print | Product List | Glossary On
Versions: 1 2 3 4 5 6 7 8 9 10 11 12 13 14 15 16 17 18 19 20 21 22 23 24 25 26 27 28 29 30 31 32 33
000
FTUS44 KHGX 300857 AAA
TAFIAH
TAF AMD
KIAH 300857Z 3009/0112 18009KT P6SM VCTS BKN015CB OVC040
      TEMPO 3009/3012 3SM TSRA BR BKN007CB
     FM301200 16010KT 6SM BR VCTS BKN015CB
     FM301500 19006KT 6SM BR VCSH SCT025 BKN035
     FM302000 15008KT P6SM VCTS SCT025 BKN035CB
     FM010300 13007KT P6SM SCT015 BKN040=

USA.gov is the U.S. government's official web portal to all federal, state and local government web resources and services.